sensor_id;sensor_type;location;lat;lon;timestamp;P1;durP1;ratioP1;P2;durP2;ratioP2
21663;SDS011;10993;52.510;13.456;2023-03-01T00:03:48;17.03;;;6.40;;
21663;SDS011;10993;52.510;13.456;2023-03-01T00:08:48;14.40;;;6.13;;
21663;SDS011;10993;52.510;13.456;2023-03-01T00:13:52;17.13;;;7.90;;
21663;SDS011;10993;52.510;13.456;2023-03-01T00:18:54;18.63;;;7.07;;
21663;SDS011;10993;52.510;13.456;2023-03-01T00:23:55;17.60;;;7.83;;
21663;SDS011;10993;52.510;13.456;2023-03-01T00:28:57;20.37;;;8.50;;
21663;SDS011;10993;52.510;13.456;2023-03-01T00:33:59;15.50;;;6.97;;
21663;SDS011;10993;52.510;13.456;2023-03-01T00:39:02;13.20;;;5.60;;
21663;SDS011;10993;52.510;13.456;2023-03-01T00:44:05;13.97;;;6.67;;
21663;SDS011;10993;52.510;13.456;2023-03-01T00:49:06;16.40;;;6.23;;
21663;SDS011;10993;52.510;13.456;2023-03-01T00:54:07;13.63;;;6.03;;
21663;SDS011;10993;52.510;13.456;2023-03-01T00:59:09;15.30;;;6.03;;
21663;SDS011;10993;52.510;13.456;2023-03-01T01:04:11;13.37;;;5.43;;
21663;SDS011;10993;52.510;13.456;2023-03-01T01:09:14;15.13;;;5.47;;
21663;SDS011;10993;52.510;13.456;2023-03-01T01:14:20;12.93;;;5.30;;
21663;SDS011;10993;52.510;13.456;2023-03-01T01:19:20;12.90;;;5.37;;
21663;SDS011;10993;52.510;13.456;2023-03-01T01:24:21;8.40;;;4.07;;
21663;SDS011;10993;52.510;13.456;2023-03-01T01:29:23;13.17;;;5.30;;
21663;SDS011;10993;52.510;13.456;2023-03-01T01:34:23;11.83;;;4.93;;
21663;SDS011;10993;52.510;13.456;2023-03-01T01:39:23;13.17;;;5.17;;
21663;SDS011;10993;52.510;13.456;2023-03-01T01:44:25;11.83;;;5.60;;
21663;SDS011;10993;52.510;13.456;2023-03-01T01:49:29;11.83;;;5.10;;
21663;SDS011;10993;52.510;13.456;2023-03-01T01:54:36;9.20;;;4.50;;
21663;SDS011;10993;52.510;13.456;2023-03-01T01:59:43;11.93;;;5.33;;
21663;SDS011;10993;52.510;13.456;2023-03-01T02:04:47;11.27;;;5.37;;
21663;SDS011;10993;52.510;13.456;2023-03-01T02:09:50;11.67;;;4.73;;
21663;SDS011;10993;52.510;13.456;2023-03-01T02:14:53;13.80;;;5.50;;
21663;SDS011;10993;52.510;13.456;2023-03-01T02:19:58;15.67;;;5.47;;
21663;SDS011;10993;52.510;13.456;2023-03-01T02:25:09;9.00;;;4.30;;
21663;SDS011;10993;52.510;13.456;2023-03-01T02:30:20;11.53;;;5.27;;
21663;SDS011;10993;52.510;13.456;2023-03-01T02:35:22;12.97;;;4.70;;
21663;SDS011;10993;52.510;13.456;2023-03-01T02:40:23;11.13;;;5.23;;
21663;SDS011;10993;52.510;13.456;2023-03-01T02:45:25;14.30;;;6.30;;
21663;SDS011;10993;52.510;13.456;2023-03-01T02:50:35;12.23;;;6.13;;
21663;SDS011;10993;52.510;13.456;2023-03-01T02:55:56;17.37;;;7.60;;
21663;SDS011;10993;52.510;13.456;2023-03-01T03:00:58;18.53;;;7.23;;
21663;SDS011;10993;52.510;13.456;2023-03-01T03:06:00;12.73;;;6.00;;
21663;SDS011;10993;52.510;13.456;2023-03-01T03:11:01;12.53;;;5.70;;
21663;SDS011;10993;52.510;13.456;2023-03-01T03:16:03;11.37;;;6.20;;
21663;SDS011;10993;52.510;13.456;2023-03-01T03:21:06;12.27;;;5.47;;
21663;SDS011;10993;52.510;13.456;2023-03-01T03:26:10;10.13;;;5.30;;
21663;SDS011;10993;52.510;13.456;2023-03-01T03:31:16;13.13;;;6.07;;
21663;SDS011;10993;52.510;13.456;2023-03-01T03:36:17;14.47;;;5.90;;
21663;SDS011;10993;52.510;13.456;2023-03-01T03:41:18;17.20;;;6.87;;
21663;SDS011;10993;52.510;13.456;2023-03-01T03:46:19;15.67;;;6.90;;
21663;SDS011;10993;52.510;13.456;2023-03-01T03:51:20;13.87;;;6.90;;
21663;SDS011;10993;52.510;13.456;2023-03-01T03:56:22;13.90;;;6.73;;
21663;SDS011;10993;52.510;13.456;2023-03-01T04:01:27;15.17;;;7.47;;
21663;SDS011;10993;52.510;13.456;2023-03-01T04:06:27;17.07;;;7.43;;
21663;SDS011;10993;52.510;13.456;2023-03-01T04:11:27;15.60;;;7.47;;
21663;SDS011;10993;52.510;13.456;2023-03-01T04:16:29;20.67;;;7.53;;
21663;SDS011;10993;52.510;13.456;2023-03-01T04:21:29;16.47;;;6.97;;
21663;SDS011;10993;52.510;13.456;2023-03-01T04:26:30;19.37;;;7.63;;
21663;SDS011;10993;52.510;13.456;2023-03-01T04:31:31;15.18;;;7.13;;
21663;SDS011;10993;52.510;13.456;2023-03-01T04:36:32;14.63;;;7.77;;
21663;SDS011;10993;52.510;13.456;2023-03-01T04:41:35;19.10;;;9.17;;
21663;SDS011;10993;52.510;13.456;2023-03-01T04:46:36;16.13;;;7.63;;
21663;SDS011;10993;52.510;13.456;2023-03-01T04:51:37;14.27;;;6.50;;
21663;SDS011;10993;52.510;13.456;2023-03-01T04:56:37;15.50;;;6.30;;
21663;SDS011;10993;52.510;13.456;2023-03-01T05:01:39;11.17;;;5.97;;
21663;SDS011;10993;52.510;13.456;2023-03-01T05:06:42;15.20;;;7.77;;
21663;SDS011;10993;52.510;13.456;2023-03-01T05:11:43;15.30;;;6.87;;
21663;SDS011;10993;52.510;13.456;2023-03-01T05:16:44;18.83;;;7.53;;
21663;SDS011;10993;52.510;13.456;2023-03-01T05:21:45;14.23;;;7.23;;
21663;SDS011;10993;52.510;13.456;2023-03-01T05:27:04;14.83;;;6.60;;
21663;SDS011;10993;52.510;13.456;2023-03-01T05:32:06;19.83;;;7.13;;
21663;SDS011;10993;52.510;13.456;2023-03-01T05:37:06;14.17;;;6.70;;
21663;SDS011;10993;52.510;13.456;2023-03-01T05:42:09;20.67;;;9.03;;
21663;SDS011;10993;52.510;13.456;2023-03-01T05:47:12;18.27;;;8.17;;
21663;SDS011;10993;52.510;13.456;2023-03-01T05:52:12;18.37;;;7.93;;
21663;SDS011;10993;52.510;13.456;2023-03-01T05:57:13;17.80;;;8.35;;
21663;SDS011;10993;52.510;13.456;2023-03-01T06:02:14;17.60;;;9.00;;
21663;SDS011;10993;52.510;13.456;2023-03-01T06:07:15;22.53;;;10.37;;
21663;SDS011;10993;52.510;13.456;2023-03-01T06:12:15;22.53;;;10.10;;
21663;SDS011;10993;52.510;13.456;2023-03-01T06:17:17;23.43;;;10.10;;
21663;SDS011;10993;52.510;13.456;2023-03-01T06:22:17;31.93;;;11.23;;
21663;SDS011;10993;52.510;13.456;2023-03-01T06:27:17;27.73;;;11.30;;
21663;SDS011;10993;52.510;13.456;2023-03-01T06:32:19;21.13;;;9.60;;
21663;SDS011;10993;52.510;13.456;2023-03-01T06:37:20;19.70;;;9.10;;
21663;SDS011;10993;52.510;13.456;2023-03-01T06:42:21;16.52;;;8.88;;
21663;SDS011;10993;52.510;13.456;2023-03-01T06:47:22;28.27;;;11.27;;
21663;SDS011;10993;52.510;13.456;2023-03-01T06:52:25;21.70;;;9.67;;
21663;SDS011;10993;52.510;13.456;2023-03-01T06:57:25;29.77;;;12.03;;
21663;SDS011;10993;52.510;13.456;2023-03-01T07:02:27;29.80;;;12.67;;
21663;SDS011;10993;52.510;13.456;2023-03-01T07:07:27;20.57;;;10.17;;
21663;SDS011;10993;52.510;13.456;2023-03-01T07:12:28;26.90;;;11.57;;
21663;SDS011;10993;52.510;13.456;2023-03-01T07:17:29;20.80;;;10.73;;
21663;SDS011;10993;52.510;13.456;2023-03-01T07:22:30;25.73;;;12.20;;
21663;SDS011;10993;52.510;13.456;2023-03-01T07:27:30;29.85;;;10.52;;
21663;SDS011;10993;52.510;13.456;2023-03-01T07:32:32;28.55;;;12.38;;
21663;SDS011;10993;52.510;13.456;2023-03-01T07:37:32;25.38;;;10.70;;
21663;SDS011;10993;52.510;13.456;2023-03-01T07:42:32;27.92;;;11.98;;
21663;SDS011;10993;52.510;13.456;2023-03-01T07:47:34;20.65;;;11.43;;
21663;SDS011;10993;52.510;13.456;2023-03-01T07:52:34;25.60;;;12.20;;
21663;SDS011;10993;52.510;13.456;2023-03-01T07:57:35;25.33;;;12.73;;
21663;SDS011;10993;52.510;13.456;2023-03-01T08:02:37;18.67;;;10.05;;
21663;SDS011;10993;52.510;13.456;2023-03-01T08:07:37;23.35;;;8.27;;
21663;SDS011;10993;52.510;13.456;2023-03-01T08:12:38;17.13;;;8.57;;
21663;SDS011;10993;52.510;13.456;2023-03-01T08:17:39;14.82;;;7.88;;
21663;SDS011;10993;52.510;13.456;2023-03-01T08:22:40;10.63;;;5.95;;
21663;SDS011;10993;52.510;13.456;2023-03-01T08:27:40;10.07;;;5.85;;
21663;SDS011;10993;52.510;13.456;2023-03-01T08:32:42;9.13;;;4.95;;
21663;SDS011;10993;52.510;13.456;2023-03-01T08:37:42;14.73;;;6.95;;
21663;SDS011;10993;52.510;13.456;2023-03-01T08:42:42;11.40;;;5.28;;
21663;SDS011;10993;52.510;13.456;2023-03-01T08:47:44;11.48;;;5.07;;
21663;SDS011;10993;52.510;13.456;2023-03-01T08:52:45;10.07;;;5.18;;
21663;SDS011;10993;52.510;13.456;2023-03-01T08:57:45;9.50;;;5.65;;
21663;SDS011;10993;52.510;13.456;2023-03-01T09:02:47;9.13;;;4.50;;
21663;SDS011;10993;52.510;13.456;2023-03-01T09:07:47;12.10;;;5.63;;
21663;SDS011;10993;52.510;13.456;2023-03-01T09:12:48;11.77;;;5.68;;
21663;SDS011;10993;52.510;13.456;2023-03-01T09:17:49;12.13;;;6.47;;
21663;SDS011;10993;52.510;13.456;2023-03-01T09:22:50;11.98;;;4.78;;
21663;SDS011;10993;52.510;13.456;2023-03-01T09:27:50;9.13;;;5.13;;
21663;SDS011;10993;52.510;13.456;2023-03-01T09:32:52;10.20;;;4.90;;
21663;SDS011;10993;52.510;13.456;2023-03-01T09:37:52;9.93;;;4.97;;
21663;SDS011;10993;52.510;13.456;2023-03-01T09:42:53;6.55;;;3.28;;
21663;SDS011;10993;52.510;13.456;2023-03-01T09:47:59;6.32;;;3.05;;
21663;SDS011;10993;52.510;13.456;2023-03-01T09:53:02;5.07;;;2.85;;
21663;SDS011;10993;52.510;13.456;2023-03-01T09:58:12;6.68;;;3.05;;
21663;SDS011;10993;52.510;13.456;2023-03-01T10:03:32;6.43;;;2.83;;
21663;SDS011;10993;52.510;13.456;2023-03-01T10:08:42;6.43;;;3.10;;
21663;SDS011;10993;52.510;13.456;2023-03-01T10:13:50;6.60;;;3.35;;
21663;SDS011;10993;52.510;13.456;2023-03-01T10:18:58;6.82;;;3.40;;
21663;SDS011;10993;52.510;13.456;2023-03-01T10:24:08;9.45;;;3.17;;
21663;SDS011;10993;52.510;13.456;2023-03-01T10:29:12;5.47;;;3.45;;
21663;SDS011;10993;52.510;13.456;2023-03-01T10:34:15;8.35;;;3.80;;
21663;SDS011;10993;52.510;13.456;2023-03-01T10:39:18;6.20;;;3.15;;
21663;SDS011;10993;52.510;13.456;2023-03-01T10:44:34;7.88;;;3.70;;
21663;SDS011;10993;52.510;13.456;2023-03-01T10:49:37;7.07;;;2.92;;
21663;SDS011;10993;52.510;13.456;2023-03-01T10:54:38;5.13;;;2.50;;
21663;SDS011;10993;52.510;13.456;2023-03-01T10:59:41;5.03;;;2.28;;
21663;SDS011;10993;52.510;13.456;2023-03-01T11:04:53;8.55;;;2.70;;
21663;SDS011;10993;52.510;13.456;2023-03-01T11:09:57;7.15;;;2.70;;
21663;SDS011;10993;52.510;13.456;2023-03-01T11:14:57;5.72;;;2.25;;
21663;SDS011;10993;52.510;13.456;2023-03-01T11:20:05;8.30;;;3.70;;
21663;SDS011;10993;52.510;13.456;2023-03-01T11:25:16;4.55;;;2.20;;
21663;SDS011;10993;52.510;13.456;2023-03-01T11:30:20;3.45;;;1.42;;
21663;SDS011;10993;52.510;13.456;2023-03-01T11:35:25;5.68;;;2.03;;
21663;SDS011;10993;52.510;13.456;2023-03-01T11:40:29;2.13;;;1.40;;
21663;SDS011;10993;52.510;13.456;2023-03-01T11:45:37;4.53;;;1.73;;
21663;SDS011;10993;52.510;13.456;2023-03-01T11:50:48;3.08;;;1.48;;
21663;SDS011;10993;52.510;13.456;2023-03-01T11:55:53;5.15;;;2.20;;
21663;SDS011;10993;52.510;13.456;2023-03-01T12:01:02;2.70;;;1.27;;
21663;SDS011;10993;52.510;13.456;2023-03-01T12:11:43;4.30;;;1.20;;
21663;SDS011;10993;52.510;13.456;2023-03-01T12:17:06;4.50;;;1.73;;
21663;SDS011;10993;52.510;13.456;2023-03-01T12:33:38;4.60;;;1.80;;
21663;SDS011;10993;52.510;13.456;2023-03-01T12:38:55;3.92;;;1.70;;
21663;SDS011;10993;52.510;13.456;2023-03-01T12:44:08;4.55;;;1.67;;
21663;SDS011;10993;52.510;13.456;2023-03-01T12:49:15;3.15;;;1.40;;
21663;SDS011;10993;52.510;13.456;2023-03-01T12:54:22;4.55;;;1.75;;
21663;SDS011;10993;52.510;13.456;2023-03-01T12:59:28;4.15;;;1.60;;
21663;SDS011;10993;52.510;13.456;2023-03-01T13:04:36;3.58;;;1.60;;
21663;SDS011;10993;52.510;13.456;2023-03-01T13:09:48;6.88;;;2.03;;
21663;SDS011;10993;52.510;13.456;2023-03-01T13:14:55;7.20;;;2.25;;
21663;SDS011;10993;52.510;13.456;2023-03-01T13:19:56;3.97;;;1.67;;
21663;SDS011;10993;52.510;13.456;2023-03-01T13:25:02;3.35;;;1.58;;
21663;SDS011;10993;52.510;13.456;2023-03-01T13:35:42;3.05;;;1.52;;
21663;SDS011;10993;52.510;13.456;2023-03-01T13:40:58;3.33;;;1.50;;
21663;SDS011;10993;52.510;13.456;2023-03-01T13:46:00;6.20;;;1.80;;
21663;SDS011;10993;52.510;13.456;2023-03-01T13:51:08;4.32;;;1.75;;
21663;SDS011;10993;52.510;13.456;2023-03-01T13:56:12;4.47;;;1.88;;
21663;SDS011;10993;52.510;13.456;2023-03-01T14:01:25;4.53;;;1.80;;
21663;SDS011;10993;52.510;13.456;2023-03-01T14:06:28;3.78;;;1.35;;
21663;SDS011;10993;52.510;13.456;2023-03-01T14:17:08;3.83;;;1.30;;
21663;SDS011;10993;52.510;13.456;2023-03-01T14:22:22;5.05;;;1.58;;
21663;SDS011;10993;52.510;13.456;2023-03-01T14:27:27;3.03;;;1.30;;
21663;SDS011;10993;52.510;13.456;2023-03-01T14:32:30;5.13;;;1.75;;
21663;SDS011;10993;52.510;13.456;2023-03-01T14:37:32;5.35;;;1.48;;
21663;SDS011;10993;52.510;13.456;2023-03-01T14:42:35;6.45;;;1.30;;
21663;SDS011;10993;52.510;13.456;2023-03-01T14:47:36;3.63;;;1.50;;
21663;SDS011;10993;52.510;13.456;2023-03-01T14:52:39;3.35;;;1.40;;
21663;SDS011;10993;52.510;13.456;2023-03-01T14:57:44;2.85;;;1.30;;
21663;SDS011;10993;52.510;13.456;2023-03-01T15:02:47;6.18;;;1.80;;
21663;SDS011;10993;52.510;13.456;2023-03-01T15:07:48;4.75;;;1.58;;
21663;SDS011;10993;52.510;13.456;2023-03-01T15:12:52;3.50;;;1.60;;
21663;SDS011;10993;52.510;13.456;2023-03-01T15:17:53;6.28;;;2.22;;
21663;SDS011;10993;52.510;13.456;2023-03-01T15:22:56;6.75;;;2.33;;
21663;SDS011;10993;52.510;13.456;2023-03-01T15:27:59;3.75;;;1.73;;
21663;SDS011;10993;52.510;13.456;2023-03-01T15:33:16;4.20;;;2.05;;
21663;SDS011;10993;52.510;13.456;2023-03-01T15:38:25;4.15;;;1.40;;
21663;SDS011;10993;52.510;13.456;2023-03-01T15:48:50;4.43;;;1.88;;
21663;SDS011;10993;52.510;13.456;2023-03-01T15:53:52;5.90;;;2.42;;
21663;SDS011;10993;52.510;13.456;2023-03-01T15:58:56;4.65;;;1.85;;
21663;SDS011;10993;52.510;13.456;2023-03-01T16:03:58;4.28;;;1.63;;
21663;SDS011;10993;52.510;13.456;2023-03-01T16:08:58;3.53;;;1.60;;
21663;SDS011;10993;52.510;13.456;2023-03-01T16:14:00;4.82;;;1.80;;
21663;SDS011;10993;52.510;13.456;2023-03-01T16:19:00;4.65;;;1.40;;
21663;SDS011;10993;52.510;13.456;2023-03-01T16:24:01;5.05;;;2.00;;
21663;SDS011;10993;52.510;13.456;2023-03-01T16:29:02;4.43;;;1.77;;
21663;SDS011;10993;52.510;13.456;2023-03-01T16:34:03;6.45;;;2.35;;
21663;SDS011;10993;52.510;13.456;2023-03-01T16:39:03;5.55;;;1.98;;
21663;SDS011;10993;52.510;13.456;2023-03-01T16:44:05;5.88;;;2.20;;
21663;SDS011;10993;52.510;13.456;2023-03-01T16:49:06;5.10;;;2.05;;
21663;SDS011;10993;52.510;13.456;2023-03-01T16:54:06;7.60;;;2.22;;
21663;SDS011;10993;52.510;13.456;2023-03-01T16:59:08;7.93;;;2.80;;
21663;SDS011;10993;52.510;13.456;2023-03-01T17:04:09;4.32;;;2.17;;
21663;SDS011;10993;52.510;13.456;2023-03-01T17:09:11;5.68;;;2.40;;
21663;SDS011;10993;52.510;13.456;2023-03-01T17:14:13;7.10;;;3.28;;
21663;SDS011;10993;52.510;13.456;2023-03-01T17:19:15;8.10;;;3.33;;
21663;SDS011;10993;52.510;13.456;2023-03-01T17:30:22;8.60;;;2.92;;
21663;SDS011;10993;52.510;13.456;2023-03-01T17:35:22;6.60;;;3.10;;
21663;SDS011;10993;52.510;13.456;2023-03-01T17:40:23;8.98;;;3.40;;
21663;SDS011;10993;52.510;13.456;2023-03-01T17:45:25;7.90;;;3.45;;
21663;SDS011;10993;52.510;13.456;2023-03-01T17:50:25;9.20;;;3.20;;
21663;SDS011;10993;52.510;13.456;2023-03-01T17:55:25;10.75;;;4.38;;
21663;SDS011;10993;52.510;13.456;2023-03-01T18:00:27;12.48;;;4.95;;
21663;SDS011;10993;52.510;13.456;2023-03-01T18:05:30;9.73;;;4.43;;
21663;SDS011;10993;52.510;13.456;2023-03-01T18:10:32;8.63;;;4.22;;
21663;SDS011;10993;52.510;13.456;2023-03-01T18:15:36;10.73;;;4.57;;
21663;SDS011;10993;52.510;13.456;2023-03-01T18:20:36;14.68;;;5.53;;
21663;SDS011;10993;52.510;13.456;2023-03-01T18:25:38;13.50;;;5.03;;
21663;SDS011;10993;52.510;13.456;2023-03-01T18:30:40;12.43;;;5.70;;
21663;SDS011;10993;52.510;13.456;2023-03-01T18:35:40;15.40;;;6.47;;
21663;SDS011;10993;52.510;13.456;2023-03-01T18:40:41;12.20;;;6.13;;
21663;SDS011;10993;52.510;13.456;2023-03-01T18:45:43;8.63;;;4.53;;
21663;SDS011;10993;52.510;13.456;2023-03-01T18:50:44;11.63;;;5.50;;
21663;SDS011;10993;52.510;13.456;2023-03-01T18:55:44;12.85;;;5.47;;
21663;SDS011;10993;52.510;13.456;2023-03-01T19:00:46;14.95;;;6.18;;
21663;SDS011;10993;52.510;13.456;2023-03-01T19:05:46;11.57;;;5.23;;
21663;SDS011;10993;52.510;13.456;2023-03-01T19:10:53;8.90;;;4.20;;
21663;SDS011;10993;52.510;13.456;2023-03-01T19:16:01;10.63;;;4.80;;
21663;SDS011;10993;52.510;13.456;2023-03-01T19:21:03;10.10;;;4.72;;
21663;SDS011;10993;52.510;13.456;2023-03-01T19:26:05;16.20;;;5.30;;
21663;SDS011;10993;52.510;13.456;2023-03-01T19:31:08;11.95;;;4.97;;
21663;SDS011;10993;52.510;13.456;2023-03-01T19:36:11;14.02;;;5.88;;
21663;SDS011;10993;52.510;13.456;2023-03-01T19:41:13;9.85;;;4.53;;
21663;SDS011;10993;52.510;13.456;2023-03-01T19:46:17;9.43;;;4.33;;
21663;SDS011;10993;52.510;13.456;2023-03-01T19:51:17;11.95;;;5.38;;
21663;SDS011;10993;52.510;13.456;2023-03-01T19:56:18;13.53;;;5.50;;
21663;SDS011;10993;52.510;13.456;2023-03-01T20:01:19;12.90;;;5.37;;
21663;SDS011;10993;52.510;13.456;2023-03-01T20:06:21;15.37;;;4.90;;
21663;SDS011;10993;52.510;13.456;2023-03-01T20:11:22;9.43;;;2.83;;
21663;SDS011;10993;52.510;13.456;2023-03-01T20:16:23;13.00;;;5.03;;
21663;SDS011;10993;52.510;13.456;2023-03-01T20:21:25;14.67;;;6.67;;
21663;SDS011;10993;52.510;13.456;2023-03-01T20:26:26;20.30;;;8.10;;
21663;SDS011;10993;52.510;13.456;2023-03-01T20:31:29;22.27;;;10.70;;
21663;SDS011;10993;52.510;13.456;2023-03-01T20:36:29;25.17;;;11.10;;
21663;SDS011;10993;52.510;13.456;2023-03-01T20:41:30;18.77;;;7.67;;
21663;SDS011;10993;52.510;13.456;2023-03-01T20:46:32;22.20;;;9.10;;
21663;SDS011;10993;52.510;13.456;2023-03-01T20:51:33;20.93;;;9.97;;
21663;SDS011;10993;52.510;13.456;2023-03-01T20:56:35;22.37;;;8.90;;
21663;SDS011;10993;52.510;13.456;2023-03-01T21:01:38;19.77;;;9.20;;
21663;SDS011;10993;52.510;13.456;2023-03-01T21:06:38;23.10;;;8.30;;
21663;SDS011;10993;52.510;13.456;2023-03-01T21:11:39;22.47;;;8.23;;
21663;SDS011;10993;52.510;13.456;2023-03-01T21:16:40;19.87;;;9.30;;
21663;SDS011;10993;52.510;13.456;2023-03-01T21:21:41;23.07;;;8.73;;
21663;SDS011;10993;52.510;13.456;2023-03-01T21:26:41;21.70;;;9.07;;
21663;SDS011;10993;52.510;13.456;2023-03-01T21:31:43;23.50;;;9.93;;
21663;SDS011;10993;52.510;13.456;2023-03-01T21:36:43;21.90;;;8.97;;
21663;SDS011;10993;52.510;13.456;2023-03-01T21:41:44;28.67;;;11.57;;
21663;SDS011;10993;52.510;13.456;2023-03-01T21:46:47;25.50;;;10.63;;
21663;SDS011;10993;52.510;13.456;2023-03-01T21:51:48;23.03;;;9.87;;
21663;SDS011;10993;52.510;13.456;2023-03-01T21:56:48;19.83;;;8.37;;
21663;SDS011;10993;52.510;13.456;2023-03-01T22:01:51;18.50;;;7.23;;
21663;SDS011;10993;52.510;13.456;2023-03-01T22:06:51;20.23;;;8.53;;
21663;SDS011;10993;52.510;13.456;2023-03-01T22:11:54;22.43;;;9.33;;
21663;SDS011;10993;52.510;13.456;2023-03-01T22:16:58;34.23;;;12.10;;
21663;SDS011;10993;52.510;13.456;2023-03-01T22:21:59;19.63;;;8.87;;
21663;SDS011;10993;52.510;13.456;2023-03-01T22:26:59;20.90;;;9.23;;
21663;SDS011;10993;52.510;13.456;2023-03-01T22:32:01;20.53;;;9.17;;
21663;SDS011;10993;52.510;13.456;2023-03-01T22:37:01;23.20;;;9.83;;
21663;SDS011;10993;52.510;13.456;2023-03-01T22:42:02;25.43;;;11.37;;
21663;SDS011;10993;52.510;13.456;2023-03-01T22:47:03;31.47;;;13.90;;
21663;SDS011;10993;52.510;13.456;2023-03-01T22:52:04;31.93;;;11.30;;
21663;SDS011;10993;52.510;13.456;2023-03-01T22:57:04;29.07;;;11.20;;
21663;SDS011;10993;52.510;13.456;2023-03-01T23:02:06;33.23;;;11.83;;
21663;SDS011;10993;52.510;13.456;2023-03-01T23:07:06;32.10;;;13.10;;
21663;SDS011;10993;52.510;13.456;2023-03-01T23:12:06;23.73;;;9.53;;
21663;SDS011;10993;52.510;13.456;2023-03-01T23:17:09;23.07;;;8.70;;
21663;SDS011;10993;52.510;13.456;2023-03-01T23:22:11;20.20;;;9.50;;
21663;SDS011;10993;52.510;13.456;2023-03-01T23:27:12;17.27;;;7.20;;
21663;SDS011;10993;52.510;13.456;2023-03-01T23:32:15;19.83;;;8.70;;
21663;SDS011;10993;52.510;13.456;2023-03-01T23:37:16;18.40;;;7.00;;
21663;SDS011;10993;52.510;13.456;2023-03-01T23:42:16;18.73;;;8.03;;
21663;SDS011;10993;52.510;13.456;2023-03-01T23:47:18;14.73;;;7.10;;
21663;SDS011;10993;52.510;13.456;2023-03-01T23:52:18;12.77;;;5.97;;
21663;SDS011;10993;52.510;13.456;2023-03-01T23:57:18;16.23;;;6.23;;
